createdAt,value
2018-07-22T00:02:22.079Z,19.15
2018-07-22T00:04:55.210Z,19.05
2018-07-22T00:07:30.076Z,18.94
2018-07-22T00:10:04.958Z,19.03
2018-07-22T00:12:38.031Z,19.00
2018-07-22T00:15:11.450Z,19.06
2018-07-22T00:17:44.586Z,19.00
2018-07-22T00:20:16.343Z,18.97
2018-07-22T00:22:49.566Z,19.02
2018-07-22T00:25:22.644Z,18.99
2018-07-22T00:27:55.921Z,18.94
2018-07-22T00:30:29.185Z,18.94
2018-07-22T00:33:00.716Z,18.91
2018-07-22T00:35:33.260Z,18.84
2018-07-22T00:38:04.986Z,18.86
2018-07-22T00:40:38.269Z,18.83
2018-07-22T00:43:10.007Z,18.81
2018-07-22T00:45:41.613Z,18.76
2018-07-22T00:48:13.230Z,18.75
2018-07-22T00:50:45.028Z,18.71
2018-07-22T00:53:16.685Z,18.71
2018-07-22T00:55:49.863Z,18.62
2018-07-22T00:58:23.095Z,18.54
2018-07-22T01:00:57.628Z,18.37
2018-07-22T01:03:29.452Z,18.45
2018-07-22T01:06:02.501Z,18.45
2018-07-22T01:08:37.080Z,18.48
2018-07-22T01:11:09.697Z,18.30
2018-07-22T01:13:44.256Z,18.39
2018-07-22T01:16:15.856Z,18.30
2018-07-22T01:18:49.170Z,18.34
2018-07-22T01:21:22.223Z,18.33
2018-07-22T01:23:53.845Z,18.36
2018-07-22T01:26:25.693Z,18.37
2018-07-22T01:28:57.175Z,18.38
2018-07-22T01:31:27.310Z,18.32
2018-07-22T01:33:59.870Z,18.35
2018-07-22T01:36:34.435Z,18.30
2018-07-22T01:39:10.527Z,18.37
2018-07-22T01:41:42.237Z,18.16
2018-07-22T01:44:13.228Z,18.13
2018-07-22T01:46:48.048Z,18.15
2018-07-22T01:49:18.106Z,18.08
2018-07-22T01:51:51.080Z,18.00
2018-07-22T01:54:26.004Z,17.93
2018-07-22T01:56:57.835Z,17.90
2018-07-22T01:59:30.277Z,17.98
2018-07-22T02:02:04.196Z,17.77
2018-07-22T02:04:36.373Z,17.66
2018-07-22T02:07:09.669Z,17.65
2018-07-22T02:09:41.498Z,17.61
2018-07-22T02:12:13.236Z,17.48
2018-07-22T02:14:46.355Z,17.43
2018-07-22T02:17:19.594Z,17.42
2018-07-22T02:19:54.545Z,17.42
2018-07-22T02:22:27.781Z,17.51
2018-07-22T02:25:01.171Z,17.30
2018-07-22T02:27:31.975Z,17.46
2018-07-22T02:30:06.936Z,17.51
2018-07-22T02:32:38.865Z,17.47
2018-07-22T02:35:09.923Z,17.42
2018-07-22T02:37:43.173Z,17.46
2018-07-22T02:40:16.584Z,17.48
2018-07-22T02:42:48.171Z,17.51
2018-07-22T02:45:22.919Z,17.45
2018-07-22T02:47:55.907Z,17.49
2018-07-22T02:50:30.752Z,17.51
2018-07-22T02:53:02.228Z,17.54
2018-07-22T02:55:35.404Z,17.41
2018-07-22T02:58:06.918Z,17.48
2018-07-22T03:00:39.575Z,17.36
2018-07-22T03:03:11.252Z,17.40
2018-07-22T03:05:42.903Z,17.36
2018-07-22T03:08:14.885Z,17.44
2018-07-22T03:10:46.583Z,17.41
2018-07-22T03:13:19.687Z,17.42
2018-07-22T03:15:53.485Z,17.46
2018-07-22T03:18:28.102Z,17.46
2018-07-22T03:21:01.460Z,17.45
2018-07-22T03:23:34.496Z,17.38
2018-07-22T03:26:08.078Z,17.40
2018-07-22T03:28:41.140Z,17.44
2018-07-22T03:31:14.068Z,17.42
2018-07-22T03:33:48.786Z,17.38
2018-07-22T03:36:22.039Z,17.41
2018-07-22T03:38:55.114Z,17.37
2018-07-22T03:41:28.453Z,17.46
2018-07-22T03:44:00.335Z,17.39
2018-07-22T03:46:33.254Z,17.44
2018-07-22T03:49:08.070Z,17.47
2018-07-22T03:51:41.175Z,17.46
2018-07-22T03:54:15.810Z,17.47
2018-07-22T03:56:48.132Z,17.34
2018-07-22T03:59:21.237Z,17.37
2018-07-22T04:01:52.975Z,17.54
2018-07-22T04:04:24.652Z,17.68
2018-07-22T04:06:54.203Z,17.71
2018-07-22T04:09:26.414Z,17.86
2018-07-22T04:11:59.693Z,17.99
2018-07-22T04:14:33.077Z,18.23
2018-07-22T04:17:06.462Z,18.29
2018-07-22T04:19:39.703Z,18.44
2018-07-22T04:22:10.930Z,18.54
2018-07-22T04:24:44.083Z,18.73
2018-07-22T04:27:18.640Z,18.50
2018-07-22T04:29:50.158Z,18.67
2018-07-22T04:32:22.231Z,19.14
2018-07-22T04:34:55.449Z,19.42
2018-07-22T04:37:29.914Z,19.68
2018-07-22T04:40:01.518Z,19.96
2018-07-22T04:42:31.713Z,20.22
2018-07-22T04:45:01.260Z,20.48
2018-07-22T04:47:32.893Z,20.68
2018-07-22T04:50:07.205Z,20.78
2018-07-22T04:52:38.064Z,21.09
2018-07-22T04:55:10.155Z,20.96
2018-07-22T04:57:43.186Z,21.27
2018-07-22T05:00:16.437Z,21.85
2018-07-22T05:02:49.444Z,22.00
2018-07-22T05:05:22.431Z,22.09
2018-07-22T05:07:52.586Z,22.30
2018-07-22T05:10:25.746Z,22.48
2018-07-22T05:12:58.859Z,22.86
2018-07-22T05:15:33.514Z,22.67
2018-07-22T05:18:06.541Z,23.05
2018-07-22T05:20:40.530Z,23.57
2018-07-22T05:23:14.000Z,23.80
2018-07-22T05:25:48.694Z,24.04
2018-07-22T05:28:20.091Z,24.26
2018-07-22T05:30:51.536Z,23.80
2018-07-22T05:33:21.497Z,23.78
2018-07-22T05:35:54.870Z,23.96
2018-07-22T05:38:26.647Z,23.90
2018-07-22T05:40:59.712Z,23.62
2018-07-22T05:43:34.060Z,24.63
2018-07-22T05:46:06.124Z,23.84
2018-07-22T05:48:37.688Z,25.01
2018-07-22T05:51:12.184Z,24.77
2018-07-22T05:53:46.689Z,24.78
2018-07-22T05:56:16.654Z,24.86
2018-07-22T05:58:49.638Z,23.99
2018-07-22T06:01:19.644Z,24.96
2018-07-22T06:03:50.810Z,25.40
2018-07-22T06:06:24.000Z,25.80
2018-07-22T06:08:56.882Z,26.04
2018-07-22T06:11:29.828Z,25.69
2018-07-22T06:14:02.947Z,27.15
2018-07-22T06:16:37.502Z,27.01
2018-07-22T06:19:08.973Z,26.24
2018-07-22T06:21:41.939Z,26.58
2018-07-22T06:24:16.687Z,26.33
2018-07-22T06:26:49.047Z,27.04
2018-07-22T06:29:23.459Z,27.61
2018-07-22T06:31:58.050Z,27.86
2018-07-22T06:34:31.107Z,27.78
2018-07-22T06:37:02.990Z,28.51
2018-07-22T06:39:35.914Z,28.79
2018-07-22T06:42:10.296Z,28.57
2018-07-22T06:44:41.013Z,27.89
2018-07-22T06:47:14.083Z,28.31
2018-07-22T06:49:47.166Z,28.49
2018-07-22T06:52:21.573Z,28.70
2018-07-22T06:54:53.046Z,29.08
2018-07-22T06:57:25.386Z,28.94
2018-07-22T06:59:58.499Z,29.23
2018-07-22T07:02:30.499Z,28.07
2018-07-22T07:05:05.304Z,28.91
2018-07-22T07:07:39.666Z,28.37
2018-07-22T07:10:14.222Z,28.99
2018-07-22T07:12:47.461Z,29.44
2018-07-22T07:15:21.997Z,29.00
2018-07-22T07:17:53.592Z,28.82
2018-07-22T07:20:25.127Z,29.99
2018-07-22T07:22:59.740Z,30.04
2018-07-22T07:25:32.909Z,30.92
2018-07-22T07:28:04.478Z,30.22
2018-07-22T07:30:34.392Z,30.93
2018-07-22T07:33:05.956Z,30.84
2018-07-22T07:35:37.585Z,31.45
2018-07-22T07:38:09.023Z,30.62
2018-07-22T07:40:41.898Z,30.04
2018-07-22T07:43:14.817Z,31.42
2018-07-22T07:45:45.225Z,30.15
2018-07-22T07:48:19.634Z,30.25
2018-07-22T07:50:51.231Z,30.75
2018-07-22T07:53:21.202Z,31.81
2018-07-22T07:55:54.208Z,30.16
2018-07-22T07:58:28.633Z,30.11
2018-07-22T08:01:00.102Z,30.62
2018-07-22T08:03:33.010Z,30.53
2018-07-22T08:06:06.382Z,30.19
2018-07-22T08:08:37.382Z,31.09
2018-07-22T08:11:09.800Z,31.55
2018-07-22T08:13:42.821Z,32.44
2018-07-22T08:16:14.263Z,33.03
2018-07-22T08:18:47.202Z,32.41
2018-07-22T08:21:21.654Z,32.99
2018-07-22T08:23:51.449Z,32.42
2018-07-22T08:26:21.362Z,33.20
2018-07-22T08:29:28.311Z,33.41
2018-07-22T08:31:58.414Z,31.15
2018-07-22T08:34:31.172Z,32.43
2018-07-22T08:37:03.828Z,31.53
2018-07-22T08:39:35.998Z,31.02
2018-07-22T08:42:06.194Z,31.07
2018-07-22T08:44:40.533Z,31.72
2018-07-22T08:47:13.567Z,32.72
2018-07-22T08:49:46.473Z,32.84
2018-07-22T08:52:21.268Z,32.04
2018-07-22T08:54:54.264Z,32.72
2018-07-22T08:57:28.760Z,32.57
2018-07-22T09:00:03.040Z,32.67
2018-07-22T09:02:35.254Z,32.25
2018-07-22T09:05:06.603Z,31.61
2018-07-22T09:07:41.090Z,31.30
2018-07-22T09:10:14.067Z,31.98
2018-07-22T09:12:46.939Z,33.22
2018-07-22T09:15:19.883Z,32.70
2018-07-22T09:17:54.430Z,32.03
2018-07-22T09:20:26.252Z,32.35
2018-07-22T09:22:59.340Z,32.56
2018-07-22T09:25:30.872Z,32.79
2018-07-22T09:28:03.801Z,32.29
2018-07-22T09:30:35.226Z,32.06
2018-07-22T09:33:05.182Z,33.46
2018-07-22T09:35:38.140Z,32.58
2018-07-22T09:38:09.676Z,32.79
2018-07-22T09:40:42.496Z,32.77
2018-07-22T09:43:13.893Z,32.94
2018-07-22T09:45:47.612Z,32.87
2018-07-22T09:48:21.800Z,33.01
2018-07-22T09:50:53.314Z,34.03
2018-07-22T09:53:23.302Z,34.22
2018-07-22T09:55:55.353Z,33.58
2018-07-22T09:58:29.651Z,33.05
2018-07-22T10:01:03.815Z,32.21
2018-07-22T10:03:35.344Z,33.00
2018-07-22T10:06:06.948Z,33.60
2018-07-22T10:08:36.904Z,33.97
2018-07-22T10:11:10.070Z,32.14
2018-07-22T10:13:43.063Z,31.95
2018-07-22T10:16:14.450Z,32.25
2018-07-22T10:18:48.798Z,32.28
2018-07-22T10:21:21.752Z,32.20
2018-07-22T10:23:53.701Z,32.64
2018-07-22T10:26:26.876Z,33.83
2018-07-22T10:28:58.250Z,33.51
2018-07-22T10:31:29.679Z,32.80
2018-07-22T10:34:03.972Z,33.08
2018-07-22T10:36:36.858Z,33.16
2018-07-22T10:39:11.273Z,32.69
2018-07-22T10:41:45.637Z,33.19
2018-07-22T10:44:21.096Z,33.38
2018-07-22T10:46:54.577Z,34.29
2018-07-22T10:49:27.601Z,34.34
2018-07-22T10:52:00.011Z,31.89
2018-07-22T10:54:31.397Z,33.17
2018-07-22T10:57:04.465Z,33.42
2018-07-22T10:59:37.443Z,33.74
2018-07-22T11:02:09.426Z,33.08
2018-07-22T11:04:39.283Z,34.02
2018-07-22T11:07:10.776Z,32.96
2018-07-22T11:09:42.727Z,33.65
2018-07-22T11:12:14.184Z,33.11
2018-07-22T11:14:48.743Z,32.82
2018-07-22T11:17:21.487Z,33.17
2018-07-22T11:19:53.644Z,32.33
2018-07-22T11:22:27.142Z,31.37
2018-07-22T11:24:57.788Z,32.37
2018-07-22T11:27:30.701Z,31.91
2018-07-22T11:30:05.282Z,31.25
2018-07-22T11:32:38.315Z,31.85
2018-07-22T11:35:11.447Z,31.73
2018-07-22T11:37:41.999Z,31.81
2018-07-22T11:40:14.821Z,31.36
2018-07-22T11:42:44.710Z,30.90
2018-07-22T11:45:19.161Z,31.28
2018-07-22T11:47:50.676Z,31.09
2018-07-22T11:50:19.811Z,32.06
2018-07-22T11:52:52.765Z,32.35
2018-07-22T11:55:27.108Z,31.79
2018-07-22T11:57:58.475Z,30.97
2018-07-22T12:00:30.977Z,31.19
2018-07-22T12:03:01.096Z,30.86
2018-07-22T12:05:33.971Z,30.77
2018-07-22T12:08:07.247Z,32.02
2018-07-22T12:10:40.153Z,32.00
2018-07-22T12:13:12.084Z,30.92
2018-07-22T12:15:44.962Z,31.59
2018-07-22T12:18:14.053Z,31.92
2018-07-22T12:20:47.168Z,31.91
2018-07-22T12:23:18.545Z,32.26
2018-07-22T12:25:51.396Z,32.70
2018-07-22T12:28:23.073Z,32.27
2018-07-22T12:30:55.595Z,32.57
2018-07-22T12:33:28.437Z,32.07
2018-07-22T12:35:58.258Z,32.42
2018-07-22T12:38:29.618Z,32.13
2018-07-22T12:41:02.508Z,32.04
2018-07-22T12:43:33.937Z,32.40
2018-07-22T12:46:08.424Z,32.18
2018-07-22T12:48:41.291Z,32.36
2018-07-22T12:51:11.472Z,32.27
2018-07-22T12:53:42.012Z,31.95
2018-07-22T12:56:14.874Z,31.88
2018-07-22T12:58:47.790Z,31.18
2018-07-22T13:01:17.793Z,31.30
2018-07-22T13:03:47.611Z,31.27
2018-07-22T13:06:19.085Z,31.13
2018-07-22T13:08:50.512Z,30.55
2018-07-22T13:11:21.930Z,31.21
2018-07-22T13:13:56.567Z,31.95
2018-07-22T13:16:29.402Z,31.70
2018-07-22T13:19:00.898Z,31.99
2018-07-22T13:21:33.677Z,32.29
2018-07-22T13:24:05.246Z,31.78
2018-07-22T13:26:36.734Z,31.83
2018-07-22T13:29:09.068Z,32.75
2018-07-22T13:31:42.025Z,31.91
2018-07-22T13:34:13.461Z,31.43
2018-07-22T13:36:43.531Z,31.62
2018-07-22T13:39:15.063Z,32.22
2018-07-22T13:41:47.868Z,32.34
2018-07-22T13:44:19.765Z,32.29
2018-07-22T13:46:51.362Z,32.26
2018-07-22T13:49:24.370Z,32.00
2018-07-22T13:51:55.352Z,31.54
2018-07-22T13:54:28.179Z,31.15
2018-07-22T13:57:01.259Z,31.17
2018-07-22T13:59:31.324Z,31.24
2018-07-22T14:02:04.387Z,31.35
2018-07-22T14:04:37.429Z,31.37
2018-07-22T14:07:10.506Z,31.06
2018-07-22T14:09:41.874Z,31.21
2018-07-22T14:12:13.305Z,30.56
2018-07-22T14:14:46.302Z,30.77
2018-07-22T14:17:16.873Z,30.82
2018-07-22T14:19:48.248Z,29.96
2018-07-22T14:22:18.325Z,30.74
2018-07-22T14:24:49.874Z,31.09
2018-07-22T14:27:21.546Z,31.12
2018-07-22T14:29:53.067Z,31.05
2018-07-22T14:32:25.182Z,31.13
2018-07-22T14:34:55.165Z,31.36
2018-07-22T14:37:25.104Z,30.78
2018-07-22T14:39:58.146Z,30.66
2018-07-22T14:42:30.327Z,30.64
2018-07-22T14:45:01.759Z,30.22
2018-07-22T14:47:31.826Z,31.09
2018-07-22T14:50:03.242Z,30.85
2018-07-22T14:52:36.139Z,30.84
2018-07-22T14:55:09.090Z,30.37
2018-07-22T14:57:42.070Z,30.12
2018-07-22T15:00:14.333Z,30.40
2018-07-22T15:02:45.653Z,30.49
2018-07-22T15:05:17.735Z,30.54
2018-07-22T15:07:49.677Z,29.98
2018-07-22T15:10:23.998Z,30.11
2018-07-22T15:12:55.914Z,29.99
2018-07-22T15:15:27.332Z,29.98
2018-07-22T15:17:58.746Z,30.00
2018-07-22T15:20:31.688Z,29.64
2018-07-22T15:23:06.119Z,29.48
2018-07-22T15:25:39.041Z,29.37
2018-07-22T15:28:10.445Z,29.51
2018-07-22T15:30:40.400Z,29.50
2018-07-22T15:33:14.829Z,28.84
2018-07-22T15:35:45.706Z,29.25
2018-07-22T15:38:18.653Z,28.78
2018-07-22T15:40:48.551Z,28.62
2018-07-22T15:43:22.315Z,28.78
2018-07-22T15:45:56.728Z,29.13
2018-07-22T15:48:28.799Z,28.83
2018-07-22T15:51:03.464Z,29.08
2018-07-22T15:53:37.863Z,28.81
2018-07-22T15:56:10.839Z,28.64
2018-07-22T15:58:43.737Z,28.59
2018-07-22T16:01:13.717Z,28.92
2018-07-22T16:03:45.550Z,28.76
2018-07-22T16:06:18.454Z,29.04
2018-07-22T16:08:50.757Z,27.59
2018-07-22T16:11:23.698Z,28.21
2018-07-22T16:13:56.657Z,28.14
2018-07-22T16:16:29.739Z,28.16
2018-07-22T16:19:01.295Z,28.12
2018-07-22T16:21:31.210Z,27.96
2018-07-22T16:24:02.600Z,28.14
2018-07-22T16:26:33.915Z,27.82
2018-07-22T16:29:05.074Z,27.99
2018-07-22T16:31:37.962Z,27.86
2018-07-22T16:34:10.873Z,27.73
2018-07-22T16:36:42.367Z,27.77
2018-07-22T16:39:14.304Z,27.52
2018-07-22T16:41:48.928Z,27.27
2018-07-22T16:44:22.109Z,27.53
2018-07-22T16:46:56.475Z,27.68
2018-07-22T16:49:30.801Z,27.68
2018-07-22T16:52:02.168Z,27.54
2018-07-22T16:54:36.602Z,27.97
2018-07-22T16:57:08.138Z,27.75
2018-07-22T16:59:39.596Z,27.54
2018-07-22T17:02:14.068Z,27.29
2018-07-22T17:04:46.558Z,27.33
2018-07-22T17:07:19.526Z,27.28
2018-07-22T17:09:52.436Z,27.34
2018-07-22T17:12:25.441Z,27.63
2018-07-22T17:14:58.360Z,27.59
2018-07-22T17:17:31.414Z,27.13
2018-07-22T17:20:04.436Z,27.20
2018-07-22T17:22:37.714Z,27.12
2018-07-22T17:25:12.061Z,27.00
2018-07-22T17:27:46.514Z,27.32
2018-07-22T17:30:16.623Z,26.77
2018-07-22T17:32:46.547Z,26.70
2018-07-22T17:35:18.103Z,26.54
2018-07-22T17:37:51.083Z,26.55
2018-07-22T17:40:22.491Z,26.57
2018-07-22T17:42:53.897Z,26.55
2018-07-22T17:45:27.108Z,26.55
2018-07-22T17:47:58.580Z,26.39
2018-07-22T17:50:32.959Z,26.42
2018-07-22T17:53:04.732Z,26.20
2018-07-22T17:55:37.763Z,26.12
2018-07-22T17:58:10.815Z,26.13
2018-07-22T18:00:42.444Z,26.18
2018-07-22T18:03:32.217Z,26.11
2018-07-22T18:06:03.627Z,26.13
2018-07-22T18:08:34.720Z,26.10
2018-07-22T18:11:07.595Z,26.17
2018-07-22T18:13:40.659Z,25.87
2018-07-22T18:16:13.770Z,25.76
2018-07-22T18:18:47.055Z,25.89
2018-07-22T18:21:21.477Z,25.69
2018-07-22T18:23:53.469Z,25.58
2018-07-22T18:26:25.083Z,25.45
2018-07-22T18:28:58.391Z,25.23
2018-07-22T18:31:30.448Z,25.36
2018-07-22T18:34:01.933Z,25.43
2018-07-22T18:36:34.001Z,25.05
2018-07-22T18:39:07.432Z,25.15
2018-07-22T18:41:40.450Z,25.03
2018-07-22T18:44:11.813Z,25.07
2018-07-22T18:46:44.017Z,24.98
2018-07-22T18:49:17.042Z,24.93
2018-07-22T18:51:48.566Z,24.89
2018-07-22T18:54:21.119Z,24.67
2018-07-22T18:56:51.001Z,24.81
2018-07-22T18:59:24.059Z,24.70
2018-07-22T19:01:55.444Z,24.54
2018-07-22T19:04:27.551Z,24.51
2018-07-22T19:06:59.271Z,24.36
2018-07-22T19:09:32.374Z,24.29
2018-07-22T19:12:05.358Z,24.14
2018-07-22T19:14:37.521Z,24.19
2018-07-22T19:17:08.225Z,24.17
2018-07-22T19:19:42.806Z,23.99
2018-07-22T19:22:15.669Z,23.98
2018-07-22T19:24:47.159Z,23.95
2018-07-22T19:27:21.651Z,23.89
2018-07-22T19:29:54.652Z,23.81
2018-07-22T19:32:24.621Z,23.77
2018-07-22T19:34:59.039Z,23.57
2018-07-22T19:37:30.603Z,23.59
2018-07-22T19:40:03.766Z,23.48
2018-07-22T19:42:36.891Z,23.37
2018-07-22T19:45:10.484Z,23.31
2018-07-22T19:47:43.351Z,23.31
2018-07-22T19:50:16.233Z,23.26
2018-07-22T19:52:47.764Z,23.22
2018-07-22T19:55:19.270Z,23.07
2018-07-22T19:57:53.283Z,22.97
2018-07-22T20:00:26.410Z,23.03
2018-07-22T20:02:59.460Z,22.89
2018-07-22T20:05:31.117Z,22.80
2018-07-22T20:08:02.531Z,22.74
2018-07-22T20:10:34.025Z,22.57
2018-07-22T20:13:04.217Z,22.47
2018-07-22T20:15:37.081Z,22.34
2018-07-22T20:18:10.352Z,22.42
2018-07-22T20:20:43.478Z,22.43
2018-07-22T20:23:16.471Z,22.26
2018-07-22T20:25:49.584Z,22.35
2018-07-22T20:28:24.191Z,22.24
2018-07-22T20:30:57.063Z,22.19
2018-07-22T20:33:27.102Z,22.19
2018-07-22T20:36:00.202Z,22.07
2018-07-22T20:38:34.950Z,22.02
2018-07-22T20:41:07.942Z,21.99
2018-07-22T20:43:39.573Z,21.91
2018-07-22T20:46:11.303Z,21.84
2018-07-22T20:48:44.334Z,21.75
2018-07-22T20:51:15.855Z,21.82
2018-07-22T20:53:48.550Z,21.82
2018-07-22T20:56:20.336Z,21.68
2018-07-22T20:58:53.250Z,21.70
2018-07-22T21:01:26.373Z,21.71
2018-07-22T21:03:57.849Z,21.58
2018-07-22T21:06:29.469Z,21.62
2018-07-22T21:09:00.956Z,21.51
2018-07-22T21:12:04.034Z,21.38
2018-07-22T21:14:35.659Z,21.44
2018-07-22T21:17:07.197Z,21.36
2018-07-22T21:19:40.326Z,21.39
2018-07-22T21:22:13.757Z,21.43
2018-07-22T21:24:45.177Z,21.33
2018-07-22T21:27:18.609Z,21.28
2018-07-22T21:29:50.124Z,21.18
2018-07-22T21:32:23.119Z,21.23
2018-07-22T21:34:54.996Z,21.08
2018-07-22T21:37:26.837Z,21.16
2018-07-22T21:40:01.536Z,21.06
2018-07-22T21:42:34.663Z,21.10
2018-07-22T21:45:08.584Z,21.05
2018-07-22T21:47:41.624Z,21.03
2018-07-22T21:50:14.750Z,21.09
2018-07-22T21:52:48.382Z,21.09
2018-07-22T21:55:20.927Z,21.02
2018-07-22T21:57:53.901Z,21.01
2018-07-22T22:00:48.029Z,20.83
2018-07-22T22:03:21.152Z,20.90
2018-07-22T22:05:54.436Z,20.87
2018-07-22T22:08:24.650Z,20.86
2018-07-22T22:10:56.864Z,20.83
2018-07-22T22:13:31.548Z,20.77
2018-07-22T22:16:01.605Z,20.77
2018-07-22T22:18:34.597Z,20.69
2018-07-22T22:21:06.309Z,20.68
2018-07-22T22:23:37.737Z,20.62
2018-07-22T22:26:10.960Z,20.62
2018-07-22T22:28:42.421Z,20.61
2018-07-22T22:31:15.359Z,20.61
2018-07-22T22:33:49.896Z,20.59
2018-07-22T22:36:23.844Z,20.51
2018-07-22T22:38:59.023Z,20.29
2018-07-22T22:41:33.546Z,20.38
2018-07-22T22:44:03.555Z,20.42
2018-07-22T22:46:35.054Z,20.41
2018-07-22T22:49:10.213Z,20.42
2018-07-22T22:51:43.312Z,20.34
2018-07-22T22:54:16.511Z,20.33
2018-07-22T22:56:46.531Z,20.31
2018-07-22T22:59:24.855Z,20.34
2018-07-22T23:01:57.968Z,20.29
2018-07-22T23:04:29.521Z,20.28
2018-07-22T23:07:02.146Z,20.25
2018-07-22T23:09:35.184Z,20.26
2018-07-22T23:12:08.188Z,20.23
2018-07-22T23:14:39.840Z,20.21
2018-07-22T23:17:14.544Z,20.15
2018-07-22T23:19:47.705Z,20.15
2018-07-22T23:22:20.891Z,20.19
2018-07-22T23:24:55.562Z,20.16
2018-07-22T23:27:28.599Z,20.12
2018-07-22T23:29:58.707Z,20.11
2018-07-22T23:32:31.934Z,20.07
2018-07-22T23:35:04.972Z,20.05
2018-07-22T23:37:39.480Z,19.64
2018-07-22T23:40:10.251Z,19.46
2018-07-22T23:42:42.034Z,19.42
2018-07-22T23:45:15.146Z,19.53
2018-07-22T23:47:48.386Z,19.50
2018-07-22T23:50:22.257Z,19.52
2018-07-22T23:52:55.426Z,19.62
2018-07-22T23:55:27.306Z,19.71
2018-07-22T23:57:58.802Z,19.68
